Tridens — PBVO — position and weather

sailwx.info

Track history (hours):
 
Tides and Currents Weather Stations Pressure Air Temp Water Temp Dewpoint Dewpoint Depression Visibility Wind Speed Wind Dir Waves Ship Positions

Oceanographic research ship Tridens (Netherlands)

Detailed information on ship capabilities available from University of Delaware's Ocean Information Center.

Last reported at 2018-Jul-19 19:00 UTC. Time now 2018-Jul-19 18:58 UTC.
Position N 53°14' E 002°45'.

Length 74 m; beam 14 m.

Type: Other ship. MMSI: 244033000.

Date/timePositionNaut miles runAvg speedWind from/ knotsBaromVisibWave heightAir tempDewpointWater temp
2018-Jul-19 19:00N 53°14' E 002°45'5 9.6
2018-Jul-19 18:30N 53°18' E 002°40'5 9.7
2018-Jul-19 18:00N 53°22' E 002°36'5 9.8
2018-Jul-19 17:30N 53°26' E 002°31'3 5.8
2018-Jul-19 17:01N 53°28' E 002°27'4 7.8
2018-Jul-19 16:30N 53°30' E 002°23'5 9.1
2018-Jul-19 16:00N 53°34' E 002°18'5 9.4
2018-Jul-19 15:29N 53°38' E 002°12'5 9.7
2018-Jul-19 15:00N 53°41' E 002°08'5 9.9
2018-Jul-19 14:27N 53°46' E 002°02'10 9.9
2018-Jul-19 13:27N 53°47' E 001°45'510.7
2018-Jul-19 13:00N 53°47' E 001°37'4 7.9
2018-Jul-19 12:30N 53°47' E 001°30'611.0
2018-Jul-19 12:00N 53°47' E 001°21'611.3
2018-Jul-19 11:30N 53°47' E 001°12'611.2
2018-Jul-19 11:00N 53°47' E 001°02'510.9
2018-Jul-19 10:30N 53°46' E 000°53'5 9.5
2018-Jul-19 10:00N 53°46' E 000°45'5 9.1
2018-Jul-19 09:27N 53°46' E 000°36'4 8.3
2018-Jul-19 09:00N 53°47' E 000°30'510.5
2018-Jul-19 08:31N 53°47' E 000°21'712.5
2018-Jul-19 07:59N 53°53' E 000°16'612.4
2018-Jul-19 07:30N 53°58' E 000°11'612.4
2018-Jul-19 07:00N 54°03' E 000°06'712.3
2018-Jul-19 06:27N 54°09' E 000°01'511.6
2018-Jul-19 05:59N 54°14' W 000°04'3 5.9
2018-Jul-19 05:30N 54°17' W 000°02'611.3
2018-Jul-19 05:00N 54°17' E 000°08'611.9
2018-Jul-19 04:27N 54°17' E 000°19'512.2
2018-Jul-19 04:00N 54°17' E 000°28'4 8.5
2018-Jul-19 03:30N 54°17' E 000°35'611.8
2018-Jul-19 03:00N 54°17' E 000°46'2 3.9
2018-Jul-19 02:29N 54°17' E 000°49'2 3.6
2018-Jul-19 02:00N 54°16' E 000°52'1 0.8
2018-Jul-19 01:14N 54°16' E 000°52'0 0.5
2018-Jul-19 00:58N 54°16' E 000°52'0 0.4
2018-Jul-19 00:27N 54°16' E 000°52'0 0.6
2018-Jul-18 23:55N 54°16' E 000°51'0 0.9
2018-Jul-18 23:29N 54°16' E 000°51'3 1.3
2018-Jul-18 21:27N 54°17' E 000°46'1 1.2
2018-Jul-18 21:00N 54°17' E 000°46'5 9.7
2018-Jul-18 20:29N 54°17' E 000°54'510.2
2018-Jul-18 20:00N 54°17' E 001°03'510.3
2018-Jul-18 19:30N 54°17' E 001°12'510.2
2018-Jul-18 19:00N 54°16' E 001°20'510.7
2018-Jul-18 18:30N 54°17' E 001°29'5 8.5
2018-Jul-18 17:57N 54°17' E 001°37'109 4.5
2018-Jul-17 17:50N 55°07' W 001°11'411.6
2018-Jul-17 17:30N 55°11' W 001°13'611.6
2018-Jul-17 17:00N 55°16' W 001°18'3 6.9
2018-Jul-17 16:30N 55°16' W 001°12'510.4
2018-Jul-17 16:00N 55°14' W 001°03'510.4
2018-Jul-17 15:30N 55°15' W 000°54'33 1.1
2018-Jul-16 10:26N 55°47' W 001°14'4 9.9
2018-Jul-16 10:01N 55°47' W 001°21'5 9.8
2018-Jul-16 09:31N 55°46' W 001°30'4 7.2
2018-Jul-16 09:00N 55°47' W 001°36'612.4
2018-Jul-16 08:31N 55°50' W 001°46'713.9
2018-Jul-16 08:00N 55°54' W 001°57'2215.0
2018-Jul-16 06:31N 56°03' W 002°33'015.0
2018-Jul-16 06:30N 56°03' W 002°33'612.1
2018-Jul-16 06:01N 56°06' W 002°43'715.0
2018-Jul-16 05:31N 56°05' W 002°56'4 8.6
2018-Jul-16 05:00N 56°02' W 003°03'611.0
2018-Jul-16 04:30N 55°59' W 003°11'0 0.9
2018-Jul-16 04:01N 55°59' W 003°11'0 0.0
2018-Jul-16 03:28N 55°59' W 003°11'0 0.0
2018-Jul-16 02:58N 55°59' W 003°11'0 0.0
2018-Jul-16 02:28N 55°59' W 003°11'0 0.0
2018-Jul-16 01:58N 55°59' W 003°11'0 0.0
2018-Jul-16 01:28N 55°59' W 003°11'0 0.0
2018-Jul-16 00:58N 55°59' W 003°11'0 0.0
2018-Jul-16 00:28N 55°59' W 003°11'0 0.0
2018-Jul-15 23:58N 55°59' W 003°11'0 0.0
2018-Jul-15 23:28N 55°59' W 003°11'0 0.0
2018-Jul-15 22:58N 55°59' W 003°11'0 0.0
2018-Jul-15 22:28N 55°59' W 003°11'0 0.0
2018-Jul-15 21:58N 55°59' W 003°11'0 0.0
2018-Jul-15 21:28N 55°59' W 003°11'0 0.0
2018-Jul-15 20:58N 55°59' W 003°11'0 0.0
2018-Jul-15 20:28N 55°59' W 003°11'0 0.0
2018-Jul-15 19:58N 55°59' W 003°11'0 0.0
2018-Jul-15 19:28N 55°59' W 003°11'0 0.0
2018-Jul-15 18:58N 55°59' W 003°11'0 0.0
2018-Jul-15 18:28N 55°59' W 003°11'0 0.0
2018-Jul-15 17:58N 55°59' W 003°11'0 0.0
2018-Jul-15 17:19N 55°59' W 003°11'0 0.0
2018-Jul-15 16:58N 55°59' W 003°11'0 0.0
2018-Jul-15 16:25N 55°59' W 003°11'0 0.0
2018-Jul-15 15:58N 55°59' W 003°11'0 0.0
2018-Jul-15 15:28N 55°59' W 003°11'0 0.0
2018-Jul-15 14:58N 55°59' W 003°11'0 0.0
2018-Jul-15 14:25N 55°59' W 003°11'0 0.0
2018-Jul-15 13:58N 55°59' W 003°11'0 0.0
2018-Jul-15 13:28N 55°59' W 003°11'0 0.0
2018-Jul-15 12:58N 55°59' W 003°11'0 0.0
2018-Jul-15 12:28N 55°59' W 003°11'0 0.0
2018-Jul-15 11:58N 55°59' W 003°11'0 0.0
2018-Jul-15 11:28N 55°59' W 003°11'0 0.0
2018-Jul-15 10:58N 55°59' W 003°11'0 0.0
2018-Jul-15 10:28N 55°59' W 003°11'0 0.0
2018-Jul-15 09:58N 55°59' W 003°11'0 0.0
2018-Jul-15 09:25N 55°59' W 003°11'0 0.0
2018-Jul-15 08:58N 55°59' W 003°11'0 0.0
2018-Jul-15 08:16N 55°59' W 003°11'0 0.0
2018-Jul-15 07:58N 55°59' W 003°11'0 0.0
2018-Jul-15 07:28N 55°59' W 003°11'0 0.0
2018-Jul-15 06:52N 55°59' W 003°11'0 0.0
2018-Jul-15 06:28N 55°59' W 003°11'0 0.0
2018-Jul-15 05:58N 55°59' W 003°11'0 0.0
2018-Jul-15 05:28N 55°59' W 003°11'0 0.0
2018-Jul-15 04:58N 55°59' W 003°11'0 0.0
2018-Jul-15 04:28N 55°59' W 003°11'0 0.0
2018-Jul-15 03:58N 55°59' W 003°11'0 0.0
2018-Jul-15 03:25N 55°59' W 003°11'0 0.0
2018-Jul-15 02:58N 55°59' W 003°11'0 0.0
2018-Jul-15 02:28N 55°59' W 003°11'0 0.0
2018-Jul-15 01:58N 55°59' W 003°11'0 0.0
2018-Jul-15 01:28N 55°59' W 003°11'0 0.0
2018-Jul-15 00:58N 55°59' W 003°11'0 0.0
2018-Jul-15 00:28N 55°59' W 003°11'0 0.0
2018-Jul-14 23:58N 55°59' W 003°11'0 0.0
2018-Jul-14 23:28N 55°59' W 003°11'0 0.0
2018-Jul-14 22:55N 55°59' W 003°11'0 0.0
2018-Jul-14 22:28N 55°59' W 003°11'0 0.0
2018-Jul-14 21:58N 55°59' W 003°11'0 0.0
2018-Jul-14 21:28N 55°59' W 003°11'0 0.0
2018-Jul-14 20:58N 55°59' W 003°11'0 0.0
2018-Jul-14 20:28N 55°59' W 003°11'0 0.0
2018-Jul-14 19:58N 55°59' W 003°11'0 0.0
2018-Jul-14 19:22N 55°59' W 003°11'0 0.0
2018-Jul-14 17:58N 55°59' W 003°11'0 0.0
2018-Jul-14 17:25N 55°59' W 003°11'0 0.0
2018-Jul-14 16:58N 55°59' W 003°11'0 0.0
2018-Jul-14 16:28N 55°59' W 003°11'0 0.0
2018-Jul-14 15:58N 55°59' W 003°11'0 0.0
2018-Jul-14 15:22N 55°59' W 003°11'0 0.0
2018-Jul-14 14:58N 55°59' W 003°11'0 0.0
2018-Jul-14 14:28N 55°59' W 003°11'0 0.0
2018-Jul-14 13:28N 55°59' W 003°11'0 0.0
2018-Jul-14 12:01N 55°59' W 003°11'0 0.0
2018-Jul-14 11:52N 55°59' W 003°11'0 0.0
2018-Jul-14 11:28N 55°59' W 003°11'0 0.0
2018-Jul-14 10:28N 55°59' W 003°11'0 0.0
2018-Jul-14 09:55N 55°59' W 003°11'0 0.0
2018-Jul-14 09:28N 55°59' W 003°11'0 0.0
2018-Jul-14 08:58N 55°59' W 003°11'0 0.0
2018-Jul-14 08:21N 55°59' W 003°11'0 1.1
2018-Jul-14 08:00N 55°59' W 003°11'0 0.3
2018-Jul-14 07:24N 55°59' W 003°11'3 7.2
2018-Jul-14 07:00N 56°01' W 003°07'4 8.5
2018-Jul-14 06:30N 56°03' W 003°00'3 5.6
2018-Jul-14 06:00N 56°04' W 002°56'3 5.2
2018-Jul-14 05:30N 56°06' W 002°51'3 5.2
2018-Jul-14 05:00N 56°06' W 002°47'3 5.2
2018-Jul-14 04:30N 56°07' W 002°43'2 4.6
2018-Jul-14 04:00N 56°08' W 002°39'2 4.2
2018-Jul-14 03:30N 56°09' W 002°35'2 4.1
2018-Jul-14 03:00N 56°09' W 002°32'2 3.4
2018-Jul-14 02:30N 56°10' W 002°29'2 3.6
2018-Jul-14 02:00N 56°11' W 002°27'2 3.5
2018-Jul-14 01:30N 56°13' W 002°25'1 1.4
2018-Jul-14 01:00N 56°13' W 002°24'1 1.4
2018-Jul-14 00:30N 56°14' W 002°25'1 1.2
2018-Jul-13 23:52N 56°15' W 002°25'0 0.9
2018-Jul-13 23:28N 56°15' W 002°25'1 1.2
2018-Jul-13 23:00N 56°16' W 002°26'2 4.1
2018-Jul-13 22:30N 56°16' W 002°22'2310.7
2018-Jul-13 20:22N 56°17' W 001°41'410.7
2018-Jul-13 19:58N 56°17' W 001°33'3 6.5
2018-Jul-13 19:27N 56°17' W 001°27'3 1.3
2018-Jul-13 17:22N 56°17' W 001°22'92 3.1
2018-Jul-12 12:03N 56°25' E 001°23'4 1.5
2018-Jul-12 09:14N 56°28' E 001°29'1 4.5
2018-Jul-12 08:56N 56°28' E 001°26'510.3
2018-Jul-12 08:28N 56°28' E 001°17'510.9
2018-Jul-12 08:00N 56°28' E 001°08'2011.0
2018-Jul-12 06:14N 56°27' E 000°33'211.0
2018-Jul-12 06:00N 56°27' E 000°28'2511.1
2018-Jul-12 03:45N 56°27' W 000°17'78 4.8
2018-Jul-11 11:21N 56°57' E 001°55'510.0
2018-Jul-11 10:49N 56°57' E 001°45'310.2
2018-Jul-11 10:30N 56°57' E 001°39'5 9.9
2018-Jul-11 10:00N 56°57' E 001°30'  
Track history (hours):
 
Tides and Currents Weather Stations Pressure Air Temp Water Temp Dewpoint Dewpoint Depression Visibility Wind Speed Wind Dir Waves Ship Positions

Oceanographic research ship Tridens (Netherlands)

Detailed information on ship capabilities available from University of Delaware's Ocean Information Center.

Last reported at 2018-Jul-19 19:00 UTC. Time now 2018-Jul-19 18:58 UTC.
Position N 53°14' E 002°45'.

Length 74 m; beam 14 m.

Type: Other ship. MMSI: 244033000.

Date/timePositionNaut miles runAvg speedWind from/ knotsBaromVisibWave heightAir tempDewpointWater temp
2018-Jul-19 19:00N 53°14' E 002°45'5 9.6
2018-Jul-19 18:30N 53°18' E 002°40'5 9.7
2018-Jul-19 18:00N 53°22' E 002°36'5 9.8
2018-Jul-19 17:30N 53°26' E 002°31'3 5.8
2018-Jul-19 17:01N 53°28' E 002°27'4 7.8
2018-Jul-19 16:30N 53°30' E 002°23'5 9.1
2018-Jul-19 16:00N 53°34' E 002°18'5 9.4
2018-Jul-19 15:29N 53°38' E 002°12'5 9.7
2018-Jul-19 15:00N 53°41' E 002°08'5 9.9
2018-Jul-19 14:27N 53°46' E 002°02'10 9.9
2018-Jul-19 13:27N 53°47' E 001°45'510.7
2018-Jul-19 13:00N 53°47' E 001°37'4 7.9
2018-Jul-19 12:30N 53°47' E 001°30'611.0
2018-Jul-19 12:00N 53°47' E 001°21'611.3
2018-Jul-19 11:30N 53°47' E 001°12'611.2
2018-Jul-19 11:00N 53°47' E 001°02'510.9
2018-Jul-19 10:30N 53°46' E 000°53'5 9.5
2018-Jul-19 10:00N 53°46' E 000°45'5 9.1
2018-Jul-19 09:27N 53°46' E 000°36'4 8.3
2018-Jul-19 09:00N 53°47' E 000°30'510.5
2018-Jul-19 08:31N 53°47' E 000°21'712.5
2018-Jul-19 07:59N 53°53' E 000°16'612.4
2018-Jul-19 07:30N 53°58' E 000°11'612.4
2018-Jul-19 07:00N 54°03' E 000°06'712.3
2018-Jul-19 06:27N 54°09' E 000°01'511.6
2018-Jul-19 05:59N 54°14' W 000°04'3 5.9
2018-Jul-19 05:30N 54°17' W 000°02'611.3
2018-Jul-19 05:00N 54°17' E 000°08'611.9
2018-Jul-19 04:27N 54°17' E 000°19'512.2
2018-Jul-19 04:00N 54°17' E 000°28'4 8.5
2018-Jul-19 03:30N 54°17' E 000°35'611.8
2018-Jul-19 03:00N 54°17' E 000°46'2 3.9
2018-Jul-19 02:29N 54°17' E 000°49'2 3.6
2018-Jul-19 02:00N 54°16' E 000°52'1 0.8
2018-Jul-19 01:14N 54°16' E 000°52'0 0.5
2018-Jul-19 00:58N 54°16' E 000°52'0 0.4
2018-Jul-19 00:27N 54°16' E 000°52'0 0.6
2018-Jul-18 23:55N 54°16' E 000°51'0 0.9
2018-Jul-18 23:29N 54°16' E 000°51'3 1.3
2018-Jul-18 21:27N 54°17' E 000°46'1 1.2
2018-Jul-18 21:00N 54°17' E 000°46'5 9.7
2018-Jul-18 20:29N 54°17' E 000°54'510.2
2018-Jul-18 20:00N 54°17' E 001°03'510.3
2018-Jul-18 19:30N 54°17' E 001°12'510.2
2018-Jul-18 19:00N 54°16' E 001°20'510.7
2018-Jul-18 18:30N 54°17' E 001°29'5 8.5
2018-Jul-18 17:57N 54°17' E 001°37'109 4.5
2018-Jul-17 17:50N 55°07' W 001°11'411.6
2018-Jul-17 17:30N 55°11' W 001°13'611.6
2018-Jul-17 17:00N 55°16' W 001°18'3 6.9
2018-Jul-17 16:30N 55°16' W 001°12'510.4
2018-Jul-17 16:00N 55°14' W 001°03'510.4
2018-Jul-17 15:30N 55°15' W 000°54'33 1.1
2018-Jul-16 10:26N 55°47' W 001°14'4 9.9
2018-Jul-16 10:01N 55°47' W 001°21'5 9.8
2018-Jul-16 09:31N 55°46' W 001°30'4 7.2
2018-Jul-16 09:00N 55°47' W 001°36'612.4
2018-Jul-16 08:31N 55°50' W 001°46'713.9
2018-Jul-16 08:00N 55°54' W 001°57'2215.0
2018-Jul-16 06:31N 56°03' W 002°33'015.0
2018-Jul-16 06:30N 56°03' W 002°33'612.1
2018-Jul-16 06:01N 56°06' W 002°43'715.0
2018-Jul-16 05:31N 56°05' W 002°56'4 8.6
2018-Jul-16 05:00N 56°02' W 003°03'611.0
2018-Jul-16 04:30N 55°59' W 003°11'0 0.9
2018-Jul-16 04:01N 55°59' W 003°11'0 0.0
2018-Jul-16 03:28N 55°59' W 003°11'0 0.0
2018-Jul-16 02:58N 55°59' W 003°11'0 0.0
2018-Jul-16 02:28N 55°59' W 003°11'0 0.0
2018-Jul-16 01:58N 55°59' W 003°11'0 0.0
2018-Jul-16 01:28N 55°59' W 003°11'0 0.0
2018-Jul-16 00:58N 55°59' W 003°11'0 0.0
2018-Jul-16 00:28N 55°59' W 003°11'0 0.0
2018-Jul-15 23:58N 55°59' W 003°11'0 0.0
2018-Jul-15 23:28N 55°59' W 003°11'0 0.0
2018-Jul-15 22:58N 55°59' W 003°11'0 0.0
2018-Jul-15 22:28N 55°59' W 003°11'0 0.0
2018-Jul-15 21:58N 55°59' W 003°11'0 0.0
2018-Jul-15 21:28N 55°59' W 003°11'0 0.0
2018-Jul-15 20:58N 55°59' W 003°11'0 0.0
2018-Jul-15 20:28N 55°59' W 003°11'0 0.0
2018-Jul-15 19:58N 55°59' W 003°11'0 0.0
2018-Jul-15 19:28N 55°59' W 003°11'0 0.0
2018-Jul-15 18:58N 55°59' W 003°11'0 0.0
2018-Jul-15 18:28N 55°59' W 003°11'0 0.0
2018-Jul-15 17:58N 55°59' W 003°11'0 0.0
2018-Jul-15 17:19N 55°59' W 003°11'0 0.0
2018-Jul-15 16:58N 55°59' W 003°11'0 0.0
2018-Jul-15 16:25N 55°59' W 003°11'0 0.0
2018-Jul-15 15:58N 55°59' W 003°11'0 0.0
2018-Jul-15 15:28N 55°59' W 003°11'0 0.0
2018-Jul-15 14:58N 55°59' W 003°11'0 0.0
2018-Jul-15 14:25N 55°59' W 003°11'0 0.0
2018-Jul-15 13:58N 55°59' W 003°11'0 0.0
2018-Jul-15 13:28N 55°59' W 003°11'0 0.0
2018-Jul-15 12:58N 55°59' W 003°11'0 0.0
2018-Jul-15 12:28N 55°59' W 003°11'0 0.0
2018-Jul-15 11:58N 55°59' W 003°11'0 0.0
2018-Jul-15 11:28N 55°59' W 003°11'0 0.0
2018-Jul-15 10:58N 55°59' W 003°11'0 0.0
2018-Jul-15 10:28N 55°59' W 003°11'0 0.0
2018-Jul-15 09:58N 55°59' W 003°11'0 0.0
2018-Jul-15 09:25N 55°59' W 003°11'0 0.0
2018-Jul-15 08:58N 55°59' W 003°11'0 0.0
2018-Jul-15 08:16N 55°59' W 003°11'0 0.0
2018-Jul-15 07:58N 55°59' W 003°11'0 0.0
2018-Jul-15 07:28N 55°59' W 003°11'0 0.0
2018-Jul-15 06:52N 55°59' W 003°11'0 0.0
2018-Jul-15 06:28N 55°59' W 003°11'0 0.0
2018-Jul-15 05:58N 55°59' W 003°11'0 0.0
2018-Jul-15 05:28N 55°59' W 003°11'0 0.0
2018-Jul-15 04:58N 55°59' W 003°11'0 0.0
2018-Jul-15 04:28N 55°59' W 003°11'0 0.0
2018-Jul-15 03:58N 55°59' W 003°11'0 0.0
2018-Jul-15 03:25N 55°59' W 003°11'0 0.0
2018-Jul-15 02:58N 55°59' W 003°11'0 0.0
2018-Jul-15 02:28N 55°59' W 003°11'0 0.0
2018-Jul-15 01:58N 55°59' W 003°11'0 0.0
2018-Jul-15 01:28N 55°59' W 003°11'0 0.0
2018-Jul-15 00:58N 55°59' W 003°11'0 0.0
2018-Jul-15 00:28N 55°59' W 003°11'0 0.0
2018-Jul-14 23:58N 55°59' W 003°11'0 0.0
2018-Jul-14 23:28N 55°59' W 003°11'0 0.0
2018-Jul-14 22:55N 55°59' W 003°11'0 0.0
2018-Jul-14 22:28N 55°59' W 003°11'0 0.0
2018-Jul-14 21:58N 55°59' W 003°11'0 0.0
2018-Jul-14 21:28N 55°59' W 003°11'0 0.0
2018-Jul-14 20:58N 55°59' W 003°11'0 0.0
2018-Jul-14 20:28N 55°59' W 003°11'0 0.0
2018-Jul-14 19:58N 55°59' W 003°11'0 0.0
2018-Jul-14 19:22N 55°59' W 003°11'0 0.0
2018-Jul-14 17:58N 55°59' W 003°11'0 0.0
2018-Jul-14 17:25N 55°59' W 003°11'0 0.0
2018-Jul-14 16:58N 55°59' W 003°11'0 0.0
2018-Jul-14 16:28N 55°59' W 003°11'0 0.0
2018-Jul-14 15:58N 55°59' W 003°11'0 0.0
2018-Jul-14 15:22N 55°59' W 003°11'0 0.0
2018-Jul-14 14:58N 55°59' W 003°11'0 0.0
2018-Jul-14 14:28N 55°59' W 003°11'0 0.0
2018-Jul-14 13:28N 55°59' W 003°11'0 0.0
2018-Jul-14 12:01N 55°59' W 003°11'0 0.0
2018-Jul-14 11:52N 55°59' W 003°11'0 0.0
2018-Jul-14 11:28N 55°59' W 003°11'0 0.0
2018-Jul-14 10:28N 55°59' W 003°11'0 0.0
2018-Jul-14 09:55N 55°59' W 003°11'0 0.0
2018-Jul-14 09:28N 55°59' W 003°11'0 0.0
2018-Jul-14 08:58N 55°59' W 003°11'0 0.0
2018-Jul-14 08:21N 55°59' W 003°11'0 1.1
2018-Jul-14 08:00N 55°59' W 003°11'0 0.3
2018-Jul-14 07:24N 55°59' W 003°11'3 7.2
2018-Jul-14 07:00N 56°01' W 003°07'4 8.5
2018-Jul-14 06:30N 56°03' W 003°00'3 5.6
2018-Jul-14 06:00N 56°04' W 002°56'3 5.2
2018-Jul-14 05:30N 56°06' W 002°51'3 5.2
2018-Jul-14 05:00N 56°06' W 002°47'3 5.2
2018-Jul-14 04:30N 56°07' W 002°43'2 4.6
2018-Jul-14 04:00N 56°08' W 002°39'2 4.2
2018-Jul-14 03:30N 56°09' W 002°35'2 4.1
2018-Jul-14 03:00N 56°09' W 002°32'2 3.4
2018-Jul-14 02:30N 56°10' W 002°29'2 3.6
2018-Jul-14 02:00N 56°11' W 002°27'2 3.5
2018-Jul-14 01:30N 56°13' W 002°25'1 1.4
2018-Jul-14 01:00N 56°13' W 002°24'1 1.4
2018-Jul-14 00:30N 56°14' W 002°25'1 1.2
2018-Jul-13 23:52N 56°15' W 002°25'0 0.9
2018-Jul-13 23:28N 56°15' W 002°25'1 1.2
2018-Jul-13 23:00N 56°16' W 002°26'2 4.1
2018-Jul-13 22:30N 56°16' W 002°22'2310.7
2018-Jul-13 20:22N 56°17' W 001°41'410.7
2018-Jul-13 19:58N 56°17' W 001°33'3 6.5
2018-Jul-13 19:27N 56°17' W 001°27'3 1.3
2018-Jul-13 17:22N 56°17' W 001°22'92 3.1
2018-Jul-12 12:03N 56°25' E 001°23'4 1.5
2018-Jul-12 09:14N 56°28' E 001°29'1 4.5
2018-Jul-12 08:56N 56°28' E 001°26'510.3
2018-Jul-12 08:28N 56°28' E 001°17'510.9
2018-Jul-12 08:00N 56°28' E 001°08'2011.0
2018-Jul-12 06:14N 56°27' E 000°33'211.0
2018-Jul-12 06:00N 56°27' E 000°28'2511.1
2018-Jul-12 03:45N 56°27' W 000°17'78 4.8
2018-Jul-11 11:21N 56°57' E 001°55'510.0
2018-Jul-11 10:49N 56°57' E 001°45'310.2
2018-Jul-11 10:30N 56°57' E 001°39'5 9.9
2018-Jul-11 10:00N 56°57' E 001°30'  

Dump ship's entire track history